Time;durP1;ratioP1;P1;durP2;ratioP2;P2;SDS_P1;SDS_P2;PMS_P1;PMS_P2;Temp;Humidity;BMP_temperature;BMP_pressure;BME280_temperature;BME280_humidity;BME280_pressure;Samples;Min_cycle;Max_cycle;Signal;HPM_P1;HPM_P2
2023/06/14 00:00:49;;;;;;;9.45;3.58;;;;;;;21.54;69.60;100239.47;4953908;29;20055;-77
2023/06/14 00:03:33;;;;;;;7.07;4.70;;;;;;;21.44;69.92;100232.00;4954992;29;20049;-78
2023/06/14 00:06:18;;;;;;;11.60;4.55;;;;;;;21.56;69.23;100232.38;4952755;28;20051;-78
2023/06/14 00:09:03;;;;;;;10.05;4.38;;;;;;;21.51;69.59;100232.78;4944874;28;20046;-78
2023/06/14 00:11:47;;;;;;;11.00;4.38;;;;;;;21.64;68.53;100236.66;4960288;28;20519;-77
2023/06/14 00:14:32;;;;;;;7.50;3.97;;;;;;;21.62;67.93;100235.50;4958576;28;20050;-77
2023/06/14 00:17:17;;;;;;;4.47;3.70;;;;;;;21.70;68.31;100223.19;4962498;28;20065;-79
2023/06/14 00:20:06;;;;;;;7.35;4.43;;;;;;;21.58;67.99;100231.97;4972825;28;20054;-79
2023/06/14 00:22:51;;;;;;;10.23;4.00;;;;;;;21.50;68.23;100235.94;4972287;28;20407;-78
2023/06/14 00:25:36;;;;;;;8.45;5.22;;;;;;;21.37;66.19;100223.75;4949109;28;20050;-77
2023/06/14 00:28:21;;;;;;;8.45;4.07;;;;;;;21.32;67.63;100227.72;4974077;28;20057;-78
2023/06/14 00:31:06;;;;;;;6.75;3.97;;;;;;;21.41;66.25;100228.06;4972194;28;20706;-77
2023/06/14 00:33:50;;;;;;;7.32;4.10;;;;;;;21.43;65.06;100231.22;4976030;28;20058;-77
2023/06/14 00:36:35;;;;;;;7.70;4.38;;;;;;;21.47;64.09;100226.47;4960828;28;20049;-77
2023/06/14 00:39:20;;;;;;;4.32;3.30;;;;;;;21.44;63.55;100229.22;4936023;29;20084;-79
2023/06/14 00:42:05;;;;;;;4.93;4.10;;;;;;;21.44;61.63;100220.94;4957369;28;20416;-79
2023/06/14 00:44:50;;;;;;;9.98;4.20;;;;;;;21.19;60.08;100221.81;4956027;28;20058;-77
2023/06/14 00:47:38;;;;;;;9.48;3.88;;;;;;;21.05;60.40;100218.25;4953733;28;20054;-77
2023/06/14 00:50:24;;;;;;;7.93;4.05;;;;;;;21.01;60.48;100221.03;4958215;28;20415;-79
2023/06/14 00:53:08;;;;;;;5.80;3.95;;;;;;;20.88;60.70;100222.59;4945904;29;20050;-78
2023/06/14 00:55:53;;;;;;;7.07;4.80;;;;;;;20.91;60.30;100211.56;4959091;28;20054;-77
2023/06/14 00:58:38;;;;;;;10.30;5.25;;;;;;;20.86;60.98;100208.41;4956041;28;20050;-78
2023/06/14 01:01:23;;;;;;;8.93;4.47;;;;;;;20.44;62.57;100203.69;4959468;28;20054;-77
2023/06/14 01:04:09;;;;;;;5.93;4.25;;;;;;;20.56;61.71;100211.59;4957899;28;20420;-77
2023/06/14 01:07:18;;;;;;;7.50;4.75;;;;;;;20.61;61.96;100210.41;4941845;29;20420;-78
2023/06/14 01:10:27;;;;;;;11.13;4.18;;;;;;;20.64;61.72;100218.69;4955549;28;20042;-77
2023/06/14 01:13:32;;;;;;;7.70;5.28;;;;;;;20.85;61.09;100215.13;4961549;28;20050;-79
2023/06/14 01:16:17;;;;;;;9.73;5.00;;;;;;;20.06;63.31;100210.72;4964341;28;20041;-78
2023/06/14 01:19:03;;;;;;;6.55;5.40;;;;;;;19.72;65.08;100212.19;4961257;28;20046;-77
2023/06/14 01:21:50;;;;;;;7.80;5.80;;;;;;;19.38;66.78;100208.88;4946765;29;20054;-78
2023/06/14 01:24:35;;;;;;;11.23;6.72;;;;;;;19.34;67.40;100213.59;4944195;29;20077;-80
2023/06/14 01:27:29;;;;;;;9.25;6.43;;;;;;;19.16;68.10;100207.97;4935103;28;20050;-78
2023/06/14 01:30:15;;;;;;;10.17;5.80;;;;;;;19.17;68.61;100209.56;4953714;28;20051;-77
2023/06/14 01:33:00;;;;;;;8.60;6.53;;;;;;;19.16;68.49;100207.97;4939021;29;20050;-79
2023/06/14 01:35:48;;;;;;;14.02;5.88;;;;;;;19.36;67.90;100206.50;4941120;29;20154;-79
2023/06/14 01:38:33;;;;;;;9.90;5.90;;;;;;;19.23;68.07;100202.50;4958509;28;20050;-76
2023/06/14 01:41:20;;;;;;;9.00;6.38;;;;;;;19.14;69.17;100202.06;4955078;28;20109;-78
2023/06/14 01:44:05;;;;;;;10.35;6.72;;;;;;;19.22;69.34;100200.94;4959481;28;20046;-77
2023/06/14 01:46:51;;;;;;;9.55;7.10;;;;;;;18.96;69.94;100203.91;4980427;28;20058;-75
2023/06/14 01:49:38;;;;;;;;;;;;;;;18.94;70.97;100206.28;4961758;28;20050;-76
2023/06/14 01:52:24;;;;;;;10.73;6.22;;;;;;;18.79;70.95;100195.13;4960683;28;20295;-76
2023/06/14 01:55:09;;;;;;;11.15;6.90;;;;;;;18.80;70.95;100195.94;4950883;28;20054;-77
2023/06/14 01:57:54;;;;;;;12.77;6.55;;;;;;;18.91;70.31;100196.81;4970891;28;20050;-78
2023/06/14 02:00:40;;;;;;;;;;;;;;;18.80;71.12;100187.66;4952192;28;20054;-77
2023/06/14 02:03:24;;;;;;;9.95;7.47;;;;;;;19.15;69.57;100189.84;4972436;28;20371;-75
2023/06/14 02:06:12;;;;;;;10.00;6.78;;;;;;;19.66;68.21;100197.97;4955117;29;20057;-75
2023/06/14 02:08:57;;;;;;;12.15;6.95;;;;;;;19.89;67.04;100194.91;4968631;28;20057;-76
2023/06/14 02:11:42;;;;;;;13.00;6.03;;;;;;;20.11;66.17;100195.75;4959648;28;20051;-75
2023/06/14 02:14:27;;;;;;;8.80;5.90;;;;;;;20.12;66.03;100198.09;4957968;28;20053;-76
2023/06/14 02:17:11;;;;;;;7.22;5.20;;;;;;;20.28;65.49;100203.25;4941371;28;20116;-75
2023/06/14 02:19:57;;;;;;;13.50;7.60;;;;;;;20.31;65.11;100189.50;4970498;28;20050;-75
2023/06/14 02:22:45;;;;;;;10.70;6.20;;;;;;;20.39;64.32;100195.81;4954871;29;20054;-75
2023/06/14 02:25:29;;;;;;;11.50;6.47;;;;;;;20.28;64.94;100194.97;4954887;29;20054;-75
2023/06/14 02:28:14;;;;;;;7.75;5.55;;;;;;;20.23;65.49;100190.63;4971783;28;20054;-76
2023/06/14 02:31:00;;;;;;;23.17;6.88;;;;;;;20.12;65.69;100194.53;4970011;28;20055;-76
2023/06/14 02:33:45;;;;;;;9.55;6.38;;;;;;;20.07;65.61;100196.50;4951637;28;20531;-77
2023/06/14 02:36:30;;;;;;;7.15;5.53;;;;;;;20.30;65.36;100200.91;4978494;28;20058;-77
2023/06/14 02:39:15;;;;;;;8.57;5.97;;;;;;;20.40;64.87;100192.66;4961060;28;20050;-77
2023/06/14 02:42:02;;;;;;;10.70;6.03;;;;;;;20.38;65.20;100192.25;4974482;28;20065;-77
2023/06/14 02:44:50;;;;;;;7.30;5.65;;;;;;;20.39;65.77;100191.06;4974394;28;20450;-77
2023/06/14 02:47:35;;;;;;;7.20;5.88;;;;;;;20.45;64.97;100186.72;4972482;28;20057;-77
2023/06/14 02:50:21;;;;;;;7.75;5.65;;;;;;;20.57;64.72;100190.28;4939532;29;20047;-76
2023/06/14 02:53:07;;;;;;;25.88;4.95;;;;;;;20.72;64.65;100194.63;4957532;28;20050;-78
2023/06/14 02:55:52;;;;;;;11.02;6.50;;;;;;;20.59;64.38;100182.38;4943668;29;20054;-80
2023/06/14 02:58:38;;;;;;;10.20;6.43;;;;;;;20.69;64.43;100182.38;4941845;29;20235;-77
2023/06/14 03:01:23;;;;;;;11.18;5.95;;;;;;;20.81;63.82;100172.88;4940551;29;20050;-77
2023/06/14 03:04:09;;;;;;;114.88;29.67;;;;;;;20.71;63.96;100191.06;4943944;29;20054;-77
2023/06/14 03:06:56;;;;;;;90.35;23.63;;;;;;;20.83;64.28;100178.78;4940841;29;20512;-76
2023/06/14 03:09:41;;;;;;;98.63;26.42;;;;;;;20.83;63.79;100193.41;4951386;29;20047;-77
2023/06/14 03:12:29;;;;;;;60.88;15.63;;;;;;;20.75;64.15;100189.06;4970203;28;20043;-77
2023/06/14 03:15:14;;;;;;;90.43;21.73;;;;;;;20.52;66.41;100194.22;4969068;28;20051;-77
2023/06/14 03:18:04;;;;;;;47.55;13.15;;;;;;;20.98;63.96;100183.09;4971637;28;20039;-77
2023/06/14 03:20:51;;;;;;;;;;;;;;;20.94;64.54;100176.81;4957545;28;20047;-76
2023/06/14 03:23:36;;;;;;;16.23;6.90;;;;;;;20.72;66.36;100173.31;4954424;28;19918;-77
2023/06/14 03:26:22;;;;;;;9.98;4.60;;;;;;;20.51;66.44;100175.28;4957145;28;20050;-77
2023/06/14 03:29:10;;;;;;;13.70;6.03;;;;;;;20.91;65.43;100170.09;4941217;29;20058;-76
2023/06/14 03:32:00;;;;;;;11.68;5.03;;;;;;;21.42;64.18;100173.53;4954855;28;20058;-77
2023/06/14 03:34:52;;;;;;;9.80;6.00;;;;;;;21.51;63.18;100171.91;4944290;28;20042;-76
2023/06/14 03:37:42;;;;;;;9.98;3.47;;;;;;;21.69;62.96;100166.25;4955543;28;20069;-78
2023/06/14 03:40:27;;;;;;;8.98;3.55;;;;;;;21.88;62.32;100162.22;4926270;29;20531;-77
2023/06/14 03:43:18;;;;;;;8.70;5.50;;;;;;;21.38;63.03;100167.22;4963025;28;20062;-76
2023/06/14 03:46:03;;;;;;;15.30;5.18;;;;;;;21.35;63.79;100160.50;4975282;28;20054;-77
2023/06/14 03:48:50;;;;;;;12.30;4.43;;;;;;;21.36;64.40;100169.59;4959768;28;20050;-77
2023/06/14 03:51:36;;;;;;;5.05;2.72;;;;;;;21.49;63.71;100159.66;4963601;28;20054;-76
2023/06/14 03:54:21;;;;;;;20.42;4.80;;;;;;;21.34;63.51;100167.22;4974995;28;20053;-76
2023/06/14 03:57:08;;;;;;;18.73;5.47;;;;;;;21.10;63.45;100165.31;4963992;28;20058;-78
2023/06/14 03:59:53;;;;;;;9.75;3.95;;;;;;;20.83;65.01;100165.75;4947979;29;20055;-78
2023/06/14 04:02:38;;;;;;;10.07;5.18;;;;;;;20.67;65.73;100170.16;4955621;28;20058;-77
2023/06/14 04:05:26;;;;;;;4.38;3.75;;;;;;;20.77;65.89;100169.34;4940420;29;20074;-78
2023/06/14 04:08:14;;;;;;;12.35;5.78;;;;;;;20.59;66.66;100177.63;4957084;28;20046;-78
2023/06/14 04:10:58;;;;;;;5.68;4.20;;;;;;;20.60;66.43;100178.44;4955924;28;20535;-78
2023/06/14 04:13:44;;;;;;;7.03;4.65;;;;;;;20.63;66.15;100177.63;4953865;28;20058;-78
2023/06/14 04:16:29;;;;;;;11.05;4.70;;;;;;;20.67;66.03;100187.50;4958023;28;20447;-78
2023/06/14 04:19:17;;;;;;;7.10;4.20;;;;;;;20.56;66.70;100199.75;4954154;28;20519;-79
2023/06/14 04:22:02;;;;;;;8.15;4.15;;;;;;;20.82;66.01;100202.09;4954310;29;20439;-78
2023/06/14 04:24:49;;;;;;;9.38;4.47;;;;;;;21.07;64.96;100202.06;4941300;28;20522;-78
2023/06/14 04:27:36;;;;;;;10.25;5.47;;;;;;;21.15;64.84;100203.63;4943369;28;20066;-78
2023/06/14 04:30:25;;;;;;;4.97;3.40;;;;;;;21.36;64.08;100202.78;4953998;28;20050;-77
2023/06/14 04:33:11;;;;;;;8.32;4.50;;;;;;;21.13;64.76;100198.47;4946992;28;20055;-77
2023/06/14 04:35:56;;;;;;;8.05;4.35;;;;;;;21.13;64.74;100201.22;4932634;29;20054;-78
2023/06/14 04:38:41;;;;;;;10.13;4.18;;;;;;;21.08;65.20;100212.69;4956025;28;20295;-78
2023/06/14 04:41:30;;;;;;;6.30;4.05;;;;;;;21.24;64.54;100215.06;4934705;28;20054;-78
2023/06/14 04:44:16;;;;;;;8.68;4.70;;;;;;;21.16;64.58;100214.31;4950948;28;20444;-77
2023/06/14 04:47:06;;;;;;;9.57;3.90;;;;;;;21.26;64.96;100216.25;4927467;28;20523;-77
2023/06/14 04:49:53;;;;;;;7.75;4.38;;;;;;;21.08;65.48;100215.47;4947201;28;20078;-78
2023/06/14 04:52:40;;;;;;;13.00;3.97;;;;;;;21.16;65.86;100217.06;4959003;28;20062;-78
2023/06/14 04:55:26;;;;;;;6.80;2.75;;;;;;;21.44;64.40;100221.72;4938960;29;20453;-77
2023/06/14 04:58:12;;;;;;;3.63;2.58;;;;;;;21.64;63.89;100211.75;4922597;28;20527;-77
2023/06/14 05:00:59;;;;;;;11.18;3.88;;;;;;;21.81;63.59;100225.91;4952041;28;20046;-77
2023/06/14 05:03:45;;;;;;;6.95;3.95;;;;;;;21.92;63.36;100230.22;4938336;28;20050;-77
2023/06/14 05:06:30;;;;;;;7.53;3.58;;;;;;;21.97;63.61;100226.28;4940058;28;20054;-77
2023/06/14 05:09:19;;;;;;;10.57;4.00;;;;;;;21.91;63.57;100225.06;4925436;28;20054;-76
2023/06/14 05:12:04;;;;;;;4.80;3.15;;;;;;;22.01;63.50;100216.75;4955559;28;20054;-77
2023/06/14 05:14:50;;;;;;;13.65;5.57;;;;;;;21.96;62.82;100214.41;4949955;28;20431;-76
2023/06/14 05:17:40;;;;;;;7.65;4.03;;;;;;;22.06;62.09;100221.84;4953270;28;20062;-77
2023/06/14 05:20:26;;;;;;;6.72;4.18;;;;;;;21.92;61.59;100233.00;4946362;28;20050;-77
2023/06/14 05:23:14;;;;;;;9.77;4.63;;;;;;;21.50;62.69;100230.41;4938494;28;20550;-77
2023/06/14 05:25:59;;;;;;;8.77;3.97;;;;;;;21.55;63.65;100239.06;4925368;28;20409;-78
2023/06/14 05:28:44;;;;;;;10.48;3.97;;;;;;;21.77;63.37;100237.81;4947704;28;20058;-77
2023/06/14 05:31:28;;;;;;;9.57;4.28;;;;;;;21.75;63.26;100233.84;4949902;28;20132;-79
2023/06/14 05:34:13;;;;;;;9.82;4.78;;;;;;;21.42;65.08;100239.94;4922977;28;20058;-77
2023/06/14 05:36:58;;;;;;;15.20;4.85;;;;;;;21.25;65.07;100244.31;4947689;28;20054;-77
2023/06/14 05:39:43;;;;;;;10.65;4.97;;;;;;;21.20;65.80;100228.91;4955807;28;20054;-77
2023/06/14 05:42:28;;;;;;;11.70;5.35;;;;;;;21.18;65.90;100231.28;4955872;29;20046;-77
2023/06/14 05:45:14;;;;;;;8.90;4.93;;;;;;;21.48;64.21;100239.13;4943162;29;20058;-78
2023/06/14 05:47:59;;;;;;;11.68;5.18;;;;;;;21.46;63.26;100246.22;4941765;28;20054;-78
2023/06/14 05:50:44;;;;;;;7.88;3.70;;;;;;;21.71;63.36;100252.47;4958561;28;20456;-77
2023/06/14 05:53:29;;;;;;;6.13;4.10;;;;;;;21.88;62.80;100246.06;4955808;29;20054;-77
2023/06/14 05:56:15;;;;;;;10.80;5.50;;;;;;;21.95;62.17;100251.59;4965712;28;20521;-77
2023/06/14 05:58:59;;;;;;;8.40;4.30;;;;;;;22.07;63.47;100259.44;4962423;28;20528;-77
2023/06/14 06:01:44;;;;;;;29.80;5.00;;;;;;;22.15;62.86;100252.66;4975157;28;20049;-77
2023/06/14 06:04:28;;;;;;;;;;;;;;;22.24;62.56;100255.00;4975286;28;20054;-77
2023/06/14 06:07:12;;;;;;;24.55;5.05;;;;;;;22.25;62.45;100253.78;4978431;28;19918;-77
2023/06/14 06:09:57;;;;;;;48.38;7.65;;;;;;;22.28;62.32;100258.53;4962949;28;20054;-78
2023/06/14 06:12:42;;;;;;;37.40;6.78;;;;;;;22.32;62.62;100261.28;4973729;28;20050;-77
2023/06/14 06:15:27;;;;;;;52.08;7.47;;;;;;;22.31;62.24;100256.91;4960367;28;20058;-77
2023/06/14 06:18:12;;;;;;;20.08;4.47;;;;;;;22.34;62.08;100261.66;4973852;28;20518;-77
2023/06/14 06:20:57;;;;;;;18.55;6.53;;;;;;;22.35;62.18;100264.00;4967146;28;20054;-77
2023/06/14 06:23:41;;;;;;;11.48;4.78;;;;;;;22.36;62.00;100264.78;4961163;28;20051;-78
2023/06/14 06:26:26;;;;;;;6.03;4.10;;;;;;;22.36;61.90;100271.13;4940337;28;20053;-78
2023/06/14 06:29:11;;;;;;;10.70;4.47;;;;;;;22.39;61.75;100275.09;4954499;28;20432;-77
2023/06/14 06:31:56;;;;;;;9.95;4.13;;;;;;;22.39;61.85;100275.09;4954256;29;20054;-78
2023/06/14 06:34:41;;;;;;;11.07;4.10;;;;;;;22.40;61.95;100282.22;4956163;28;20054;-77
2023/06/14 06:37:26;;;;;;;15.07;3.95;;;;;;;22.39;61.83;100284.19;4953807;28;20069;-77
2023/06/14 06:40:10;;;;;;;;;;;;;;;22.42;61.91;100285.34;4945696;28;20535;-77
2023/06/14 06:42:55;;;;;;;8.60;3.85;;;;;;;22.42;61.76;100277.03;4960084;28;19913;-78
2023/06/14 06:45:40;;;;;;;9.40;4.65;;;;;;;22.42;61.86;100279.81;4961609;28;20047;-77
2023/06/14 06:48:25;;;;;;;13.63;4.38;;;;;;;22.43;61.80;100286.94;4950753;28;20046;-77
2023/06/14 06:51:09;;;;;;;8.23;3.53;;;;;;;22.42;62.01;100296.44;4956885;28;20050;-78
2023/06/14 06:53:54;;;;;;;5.18;3.88;;;;;;;22.45;62.02;100292.88;4953757;28;20042;-78
2023/06/14 06:56:38;;;;;;;13.05;4.20;;;;;;;22.47;61.96;100298.78;4954280;29;20062;-77
2023/06/14 06:59:23;;;;;;;5.60;3.58;;;;;;;22.40;62.30;100298.84;4954314;28;20046;-78
2023/06/14 07:02:08;;;;;;;8.68;4.30;;;;;;;22.44;62.11;100294.06;4956363;28;20050;-78
2023/06/14 07:04:52;;;;;;;12.35;5.22;;;;;;;22.48;60.91;100298.38;4941455;28;20059;-77
2023/06/14 07:07:37;;;;;;;8.93;4.80;;;;;;;22.14;61.79;100300.16;4962860;28;20055;-77
2023/06/14 07:10:24;;;;;;;14.77;5.22;;;;;;;21.85;63.05;100295.91;4955388;29;20050;-77
2023/06/14 07:13:09;;;;;;;13.57;5.50;;;;;;;21.77;63.23;100297.91;4955160;29;20531;-80
2023/06/14 07:16:00;;;;;;;7.72;5.15;;;;;;;22.05;63.19;100308.91;4939911;29;20050;-79
2023/06/14 07:18:45;;;;;;;14.75;4.45;;;;;;;22.05;61.02;100302.56;4940004;29;20054;-77
2023/06/14 07:21:30;;;;;;;6.95;4.30;;;;;;;21.94;59.51;100301.84;4954517;29;20059;-77
2023/06/14 07:24:15;;;;;;;7.50;4.18;;;;;;;21.99;60.07;100307.72;4933913;29;20410;-76
2023/06/14 07:26:59;;;;;;;6.28;4.50;;;;;;;21.88;58.96;100312.50;4936642;29;20421;-77
2023/06/14 07:29:46;;;;;;;12.57;4.40;;;;;;;21.83;58.63;100318.47;4934638;29;20051;-77
2023/06/14 07:32:30;;;;;;;;;;;;;;;21.98;59.70;100314.47;4929015;29;20058;-77
2023/06/14 07:35:15;;;;;;;8.88;3.75;;;;;;;22.04;59.07;100312.88;4937855;29;20001;-76
2023/06/14 07:38:00;;;;;;;6.68;3.88;;;;;;;22.08;58.66;100315.63;4939618;28;20037;-76
2023/06/14 07:40:44;;;;;;;9.02;4.50;;;;;;;22.07;58.63;100309.28;4944929;28;20050;-76
2023/06/14 07:43:29;;;;;;;12.43;4.68;;;;;;;22.14;59.16;100305.72;4958798;28;20046;-77
2023/06/14 07:46:14;;;;;;;10.75;4.28;;;;;;;21.95;58.73;100312.50;4948251;28;20524;-77
2023/06/14 07:48:59;;;;;;;3.92;2.95;;;;;;;22.08;59.80;100310.88;4949410;28;20527;-78
2023/06/14 07:51:45;;;;;;;6.70;3.67;;;;;;;22.19;58.66;100305.28;4935429;28;20105;-79
2023/06/14 07:54:32;;;;;;;18.65;4.20;;;;;;;22.00;58.85;100309.31;4949825;28;20050;-78
2023/06/14 07:57:19;;;;;;;10.15;4.70;;;;;;;21.93;58.95;100312.09;4952180;29;20054;-76
2023/06/14 08:00:07;;;;;;;9.73;4.72;;;;;;;22.01;59.15;100319.22;5050622;23;20053;-75
2023/06/14 08:02:58;;;;;;;7.55;3.88;;;;;;;22.21;59.50;100300.13;4968305;28;20058;-76
2023/06/14 08:05:43;;;;;;;8.23;5.22;;;;;;;22.10;57.95;100307.69;4958690;28;20408;-76
2023/06/14 08:08:28;;;;;;;14.32;3.67;;;;;;;22.23;59.69;100311.59;4956772;28;20053;-78
2023/06/14 08:11:13;;;;;;;11.65;3.60;;;;;;;22.34;58.81;100314.31;4957004;28;20054;-78
2023/06/14 08:13:58;;;;;;;11.60;4.00;;;;;;;22.42;59.56;100318.59;4977064;28;20057;-77
2023/06/14 08:16:42;;;;;;;6.88;3.80;;;;;;;23.13;55.34;100318.09;4966862;28;20046;-77
2023/06/14 08:19:28;;;;;;;9.88;4.47;;;;;;;23.54;55.07;100327.25;4963731;28;20404;-77
2023/06/14 08:22:12;;;;;;;10.55;3.72;;;;;;;23.86;53.02;100324.13;4961889;28;20045;-77
2023/06/14 08:24:57;;;;;;;6.30;3.85;;;;;;;24.03;51.16;100325.88;4974537;28;20050;-78
2023/06/14 08:27:43;;;;;;;7.15;3.92;;;;;;;23.04;53.44;100326.91;4957363;28;20050;-78
2023/06/14 08:30:27;;;;;;;;;;;;;;;22.68;54.86;100325.56;4939930;29;20058;-79
2023/06/14 08:33:12;;;;;;;7.40;4.03;;;;;;;22.22;55.66;100332.16;4942048;28;19914;-79
2023/06/14 08:35:57;;;;;;;8.57;4.35;;;;;;;22.50;55.16;100337.53;4965786;28;20050;-79
2023/06/14 08:38:41;;;;;;;5.22;3.83;;;;;;;22.82;55.51;100331.81;4949262;28;20046;-78
2023/06/14 08:41:27;;;;;;;;;;;;;;;23.48;52.24;100339.19;4958017;28;20057;-78
2023/06/14 08:44:12;;;;;;;12.60;4.30;;;;;;;23.25;53.58;100335.03;4961042;28;19914;-77
2023/06/14 08:46:59;;;;;;;6.63;3.78;;;;;;;22.81;55.41;100335.78;4967211;28;20066;-77
2023/06/14 08:49:48;;;;;;;5.57;3.72;;;;;;;22.57;55.28;100343.06;4945675;28;20428;-77
2023/06/14 08:52:40;;;;;;;7.32;3.10;;;;;;;22.69;55.79;100344.56;4945615;28;20058;-78
2023/06/14 08:55:27;;;;;;;11.48;3.90;;;;;;;22.46;56.43;100344.31;4954079;28;20061;-77
2023/06/14 08:58:14;;;;;;;14.45;4.85;;;;;;;22.47;56.79;100343.91;4949240;28;20055;-77
2023/06/14 09:00:59;;;;;;;5.95;3.00;;;;;;;22.52;56.83;100353.78;4941601;29;20055;-77
2023/06/14 09:03:45;;;;;;;13.18;3.40;;;;;;;22.57;55.97;100356.91;4941468;29;20062;-77
2023/06/14 09:06:30;;;;;;;5.93;3.30;;;;;;;22.50;55.78;100358.94;4956617;29;20058;-78
2023/06/14 09:09:14;;;;;;;7.38;3.60;;;;;;;22.59;54.92;100357.31;4956813;29;20058;-78
2023/06/14 09:11:59;;;;;;;11.15;4.07;;;;;;;22.57;55.82;100354.13;4955349;28;20531;-77
2023/06/14 09:14:44;;;;;;;;;;;;;;;22.65;56.06;100360.44;4956846;29;20050;-78
2023/06/14 09:17:28;;;;;;;6.50;3.03;;;;;;;22.57;55.80;100358.88;4945199;29;19914;-77
2023/06/14 09:20:17;;;;;;;12.25;4.25;;;;;;;22.56;56.13;100357.31;4955127;29;20046;-77
2023/06/14 09:23:04;;;;;;;8.80;3.95;;;;;;;22.57;55.82;100367.19;4941466;29;20046;-77
2023/06/14 09:25:50;;;;;;;11.18;3.78;;;;;;;22.49;54.88;100358.16;4944415;29;20065;-77
2023/06/14 09:28:35;;;;;;;10.55;4.18;;;;;;;22.51;55.76;100363.28;4928709;29;20050;-77
2023/06/14 09:31:21;;;;;;;4.50;3.05;;;;;;;22.55;54.78;100364.84;4955613;29;20062;-77
2023/06/14 09:34:07;;;;;;;5.30;2.90;;;;;;;22.61;54.34;100360.44;4958488;28;20050;-77
2023/06/14 09:36:51;;;;;;;10.63;3.30;;;;;;;22.61;54.93;100370.75;4937561;28;20058;-76
2023/06/14 09:39:49;;;;;;;4.88;3.63;;;;;;;22.72;54.25;100365.94;4929136;29;20050;-76
2023/06/14 09:42:35;;;;;;;5.50;3.33;;;;;;;22.66;55.17;100361.19;4953032;28;20063;-76
2023/06/14 09:45:22;;;;;;;6.28;3.05;;;;;;;22.65;54.12;100368.75;4933132;28;20058;-77
2023/06/14 09:48:08;;;;;;;5.10;2.97;;;;;;;22.58;53.93;100368.78;4935790;28;20054;-76
2023/06/14 09:50:55;;;;;;;8.55;2.92;;;;;;;22.64;54.40;100366.38;4942973;28;20080;-77
2023/06/14 09:53:42;;;;;;;3.55;2.72;;;;;;;22.66;54.02;100370.31;4953510;28;20049;-77
2023/06/14 09:56:33;;;;;;;9.13;2.90;;;;;;;22.71;54.03;100369.91;4938169;28;20051;-77
2023/06/14 09:59:29;;;;;;;29.58;3.63;;;;;;;22.73;53.59;100364.75;4961855;28;20551;-77
2023/06/14 10:02:34;;;;;;;3.72;3.25;;;;;;;22.67;53.69;100371.91;4928309;28;20131;-77
2023/06/14 10:05:20;;;;;;;5.55;2.25;;;;;;;22.73;53.75;100366.75;4949971;28;20050;-77
2023/06/14 10:08:09;;;;;;;3.90;2.90;;;;;;;22.78;52.85;100358.00;4947929;28;20054;-78
2023/06/14 10:10:56;;;;;;;47.40;6.50;;;;;;;22.89;52.74;100350.41;4944890;29;20058;-77
2023/06/14 10:13:41;;;;;;;10.38;3.40;;;;;;;22.86;53.22;100354.75;4955642;29;20495;-77
2023/06/14 10:17:05;;;;;;;5.20;3.55;;;;;;;22.91;52.69;100357.09;4956152;28;20058;-78
2023/06/14 10:19:57;;;;;;;3.78;2.80;;;;;;;23.00;51.76;100353.88;4880500;29;20044;-78
2023/06/14 10:23:17;;;;;;;11.43;2.55;;;;;;;23.05;50.75;100349.88;4941702;29;20408;-77
2023/06/14 10:26:02;;;;;;;3.85;2.50;;;;;;;23.04;51.17;100349.09;4953393;28;20046;-77
2023/06/14 10:29:01;;;;;;;3.75;2.30;;;;;;;23.07;51.45;100344.69;4942107;29;20042;-77
2023/06/14 10:31:55;;;;;;;4.32;2.63;;;;;;;23.11;50.37;100332.38;4948122;28;20046;-77
2023/06/14 10:34:40;;;;;;;9.10;2.00;;;;;;;23.09;51.95;100334.00;4940950;28;20069;-77
2023/06/14 10:37:25;;;;;;;7.78;3.10;;;;;;;23.11;50.38;100343.47;4941158;29;20131;-77
2023/06/14 10:40:30;;;;;;;2.58;1.73;;;;;;;23.19;52.06;100333.09;4930444;29;20046;-78
2023/06/14 10:43:23;;;;;;;4.55;2.17;;;;;;;23.23;48.92;100333.84;4943935;29;20055;-78
2023/06/14 10:46:21;;;;;;;7.20;3.20;;;;;;;23.24;48.42;100341.78;4935123;28;20047;-78
2023/06/14 10:49:06;;;;;;;4.28;2.30;;;;;;;23.21;51.34;100336.28;4937210;29;20051;-78
2023/06/14 10:51:52;;;;;;;2.83;1.70;;;;;;;23.32;44.58;100331.41;4921162;29;20051;-77
2023/06/14 10:54:38;;;;;;;4.35;2.28;;;;;;;23.31;47.42;100330.63;4935875;29;20059;-78
2023/06/14 10:57:23;;;;;;;3.90;1.80;;;;;;;23.28;46.85;100327.88;4938515;29;20536;-76
2023/06/14 11:00:15;;;;;;;2.90;1.83;;;;;;;23.43;47.40;100320.97;4922285;29;20055;-77
2023/06/14 11:03:30;;;;;;;4.40;1.90;;;;;;;23.48;48.95;100322.53;4921054;29;20251;-77
2023/06/14 11:06:15;;;;;;;3.55;2.28;;;;;;;23.43;49.73;100320.97;4939909;28;20046;-77
2023/06/14 11:09:50;;;;;;;2.90;1.83;;;;;;;23.35;49.38;100313.94;4949478;28;20408;-77
2023/06/14 11:12:38;;;;;;;3.23;2.47;;;;;;;23.83;44.03;100306.28;4945890;29;20055;-78
2023/06/14 11:15:33;;;;;;;3.80;2.00;;;;;;;23.82;46.00;100315.06;4944660;29;20050;-78
2023/06/14 11:18:18;;;;;;;2.28;1.58;;;;;;;23.66;45.67;100309.28;4924674;29;20047;-77
2023/06/14 11:21:03;;;;;;;1.98;1.40;;;;;;;23.69;47.33;100308.44;4926227;29;20051;-78
2023/06/14 11:23:51;;;;;;;5.80;2.40;;;;;;;23.90;43.71;100299.06;4930757;29;20063;-78
2023/06/14 11:26:38;;;;;;;6.15;1.70;;;;;;;24.10;42.69;100292.47;4935672;28;20066;-76
2023/06/14 11:29:22;;;;;;;10.50;1.63;;;;;;;24.22;42.26;100288.38;4937677;28;20054;-76
2023/06/14 11:32:12;;;;;;;10.95;2.28;;;;;;;23.97;44.55;100291.44;4938732;28;20046;-77
2023/06/14 11:34:58;;;;;;;3.72;1.90;;;;;;;23.70;47.28;100290.59;4935982;29;20432;-77
2023/06/14 11:37:44;;;;;;;6.93;2.60;;;;;;;23.75;46.26;100287.34;4941627;29;20054;-77
2023/06/14 11:40:28;;;;;;;2.65;1.60;;;;;;;23.60;46.51;100286.72;4920431;29;20420;-78
2023/06/14 11:43:14;;;;;;;3.25;1.95;;;;;;;23.48;48.31;100284.47;4933621;29;20058;-77
2023/06/14 11:45:58;;;;;;;3.03;1.83;;;;;;;23.60;46.90;100274.84;4955549;28;20051;-77
2023/06/14 11:48:43;;;;;;;5.10;2.05;;;;;;;23.79;43.72;100280.56;4954256;29;20054;-77
2023/06/14 11:51:30;;;;;;;3.45;2.38;;;;;;;23.80;45.58;100279.34;4943200;29;20054;-77
2023/06/14 11:54:15;;;;;;;2.55;1.38;;;;;;;23.81;46.02;100280.94;4943675;28;20060;-77
2023/06/14 11:57:00;;;;;;;2.97;1.67;;;;;;;24.13;43.45;100279.69;4933565;28;20054;-78
2023/06/14 11:59:46;;;;;;;7.28;2.38;;;;;;;24.46;40.33;100272.53;4929570;29;20050;-77
2023/06/14 12:02:31;;;;;;;3.83;1.50;;;;;;;24.57;40.37;100268.38;4942170;29;20055;-78
2023/06/14 12:05:21;;;;;;;5.88;2.00;;;;;;;24.64;41.09;100265.47;4947460;28;20055;-78
2023/06/14 12:08:07;;;;;;;2.90;1.80;;;;;;;24.74;41.48;100269.28;4934048;29;20124;-77
2023/06/14 12:10:52;;;;;;;11.70;2.15;;;;;;;24.95;41.28;100260.63;4935241;29;20055;-77
2023/06/14 12:13:43;;;;;;;5.72;2.13;;;;;;;24.92;40.88;100252.34;4935041;29;20043;-77
2023/06/14 12:16:33;;;;;;;7.78;2.28;;;;;;;25.10;39.02;100256.38;4947918;28;20047;-77
2023/06/14 12:19:17;;;;;;;6.22;2.03;;;;;;;24.86;38.17;100242.88;4936593;28;20425;-77
2023/06/14 12:22:04;;;;;;;5.45;1.92;;;;;;;24.96;41.29;100244.72;4944938;29;20677;-77
2023/06/14 12:24:49;;;;;;;7.25;2.10;;;;;;;25.19;41.43;100258.63;4955891;29;20519;-77
2023/06/14 12:27:34;;;;;;;4.45;1.83;;;;;;;25.43;40.63;100237.88;4941482;29;20042;-77
2023/06/14 12:30:19;;;;;;;7.28;2.50;;;;;;;25.39;41.60;100244.72;4940756;29;20058;-78
2023/06/14 12:33:05;;;;;;;6.55;2.28;;;;;;;25.29;40.02;100240.94;4955886;28;20046;-77
2023/06/14 12:35:50;;;;;;;2.60;1.63;;;;;;;25.20;39.68;100240.69;4940038;29;20054;-77
2023/06/14 12:38:36;;;;;;;2.70;2.03;;;;;;;25.09;39.85;100238.09;4945527;29;20043;-77
2023/06/14 12:41:22;;;;;;;3.80;2.28;;;;;;;25.06;40.86;100236.19;4943673;29;20054;-77
2023/06/14 12:44:06;;;;;;;3.58;1.95;;;;;;;24.86;40.91;100235.31;4957698;29;20042;-78
2023/06/14 12:46:54;;;;;;;;;;;;;;;25.05;39.54;100242.16;4954144;28;20078;-78
2023/06/14 12:49:40;;;;;;;5.15;1.98;;;;;;;25.49;39.23;100243.72;4946140;28;19918;-79
2023/06/14 12:52:24;;;;;;;4.70;2.00;;;;;;;25.41;39.66;100240.28;4959855;28;20042;-78
2023/06/14 12:55:09;;;;;;;3.10;2.25;;;;;;;25.24;39.62;100241.44;4944258;29;20046;-77